sensor_id;sensor_type;location;lat;lon;timestamp;temperature;humidity
10459;DHT22;5277;48.722;8.736;2023-06-04T00:01:12;13.90;98.90
10459;DHT22;5277;48.722;8.736;2023-06-04T00:03:38;13.90;99.20
10459;DHT22;5277;48.722;8.736;2023-06-04T00:06:03;14.00;98.60
10459;DHT22;5277;48.722;8.736;2023-06-04T00:08:29;14.00;98.90
10459;DHT22;5277;48.722;8.736;2023-06-04T00:10:55;14.00;98.90
10459;DHT22;5277;48.722;8.736;2023-06-04T00:13:20;14.00;98.60
10459;DHT22;5277;48.722;8.736;2023-06-04T00:15:46;13.90;98.80
10459;DHT22;5277;48.722;8.736;2023-06-04T00:18:11;13.80;99.00
10459;DHT22;5277;48.722;8.736;2023-06-04T00:20:38;13.80;99.40
10459;DHT22;5277;48.722;8.736;2023-06-04T00:23:04;13.80;99.70
10459;DHT22;5277;48.722;8.736;2023-06-04T00:25:31;13.80;99.90
10459;DHT22;5277;48.722;8.736;2023-06-04T00:27:56;13.60;99.70
10459;DHT22;5277;48.722;8.736;2023-06-04T00:30:22;13.60;99.90
10459;DHT22;5277;48.722;8.736;2023-06-04T00:32:47;13.50;99.90
10459;DHT22;5277;48.722;8.736;2023-06-04T00:35:13;13.50;99.90
10459;DHT22;5277;48.722;8.736;2023-06-04T00:37:39;13.40;99.90
10459;DHT22;5277;48.722;8.736;2023-06-04T00:40:05;13.40;99.90
10459;DHT22;5277;48.722;8.736;2023-06-04T00:42:31;13.40;99.90
10459;DHT22;5277;48.722;8.736;2023-06-04T00:44:57;13.30;99.90
10459;DHT22;5277;48.722;8.736;2023-06-04T00:47:23;13.10;99.90
10459;DHT22;5277;48.722;8.736;2023-06-04T00:49:49;13.10;99.90
10459;DHT22;5277;48.722;8.736;2023-06-04T00:52:15;13.10;99.90
10459;DHT22;5277;48.722;8.736;2023-06-04T00:54:42;13.10;99.90
10459;DHT22;5277;48.722;8.736;2023-06-04T00:57:07;13.10;99.90
10459;DHT22;5277;48.722;8.736;2023-06-04T00:59:35;13.10;99.90
10459;DHT22;5277;48.722;8.736;2023-06-04T01:07:04;13.00;99.90
10459;DHT22;5277;48.722;8.736;2023-06-04T01:09:30;12.90;99.90
10459;DHT22;5277;48.722;8.736;2023-06-04T01:11:56;13.00;99.90
10459;DHT22;5277;48.722;8.736;2023-06-04T01:14:24;12.90;99.90
10459;DHT22;5277;48.722;8.736;2023-06-04T01:25:33;12.80;99.90
10459;DHT22;5277;48.722;8.736;2023-06-04T01:27:59;12.70;99.90
10459;DHT22;5277;48.722;8.736;2023-06-04T01:30:34;12.70;99.90
10459;DHT22;5277;48.722;8.736;2023-06-04T01:33:02;12.70;99.90
10459;DHT22;5277;48.722;8.736;2023-06-04T01:35:29;12.70;99.90
10459;DHT22;5277;48.722;8.736;2023-06-04T01:37:58;12.60;99.90
10459;DHT22;5277;48.722;8.736;2023-06-04T01:40:24;12.60;99.90
10459;DHT22;5277;48.722;8.736;2023-06-04T01:42:51;12.50;99.90
10459;DHT22;5277;48.722;8.736;2023-06-04T01:45:16;12.50;99.90
10459;DHT22;5277;48.722;8.736;2023-06-04T01:47:42;12.50;99.90
10459;DHT22;5277;48.722;8.736;2023-06-04T01:50:08;12.40;99.90
10459;DHT22;5277;48.722;8.736;2023-06-04T01:52:35;12.40;99.90
10459;DHT22;5277;48.722;8.736;2023-06-04T01:55:06;12.40;99.90
10459;DHT22;5277;48.722;8.736;2023-06-04T01:57:35;12.30;99.90
10459;DHT22;5277;48.722;8.736;2023-06-04T02:00:02;12.30;99.90
10459;DHT22;5277;48.722;8.736;2023-06-04T02:02:28;12.30;99.90
10459;DHT22;5277;48.722;8.736;2023-06-04T02:04:54;12.20;99.90
10459;DHT22;5277;48.722;8.736;2023-06-04T02:07:20;11.90;99.90
10459;DHT22;5277;48.722;8.736;2023-06-04T02:09:48;11.90;99.90
10459;DHT22;5277;48.722;8.736;2023-06-04T02:12:15;12.00;99.90
10459;DHT22;5277;48.722;8.736;2023-06-04T02:14:41;12.10;99.90
10459;DHT22;5277;48.722;8.736;2023-06-04T02:17:08;12.00;99.90
10459;DHT22;5277;48.722;8.736;2023-06-04T02:19:42;12.00;99.90
10459;DHT22;5277;48.722;8.736;2023-06-04T02:22:18;12.00;99.90
10459;DHT22;5277;48.722;8.736;2023-06-04T02:24:45;12.00;99.90
10459;DHT22;5277;48.722;8.736;2023-06-04T02:27:11;12.00;99.90
10459;DHT22;5277;48.722;8.736;2023-06-04T02:29:40;12.00;99.90
10459;DHT22;5277;48.722;8.736;2023-06-04T02:32:06;12.00;99.90
10459;DHT22;5277;48.722;8.736;2023-06-04T02:34:32;11.90;99.90
10459;DHT22;5277;48.722;8.736;2023-06-04T02:36:59;11.90;99.90
10459;DHT22;5277;48.722;8.736;2023-06-04T02:39:25;12.00;99.90
10459;DHT22;5277;48.722;8.736;2023-06-04T02:41:51;11.90;99.90
10459;DHT22;5277;48.722;8.736;2023-06-04T02:44:16;11.90;99.90
10459;DHT22;5277;48.722;8.736;2023-06-04T02:46:42;11.80;99.90
10459;DHT22;5277;48.722;8.736;2023-06-04T02:49:09;11.80;99.90
10459;DHT22;5277;48.722;8.736;2023-06-04T02:51:34;11.70;99.90
10459;DHT22;5277;48.722;8.736;2023-06-04T02:54:00;11.70;99.90
10459;DHT22;5277;48.722;8.736;2023-06-04T02:56:25;11.60;99.90
10459;DHT22;5277;48.722;8.736;2023-06-04T02:58:55;11.50;99.90
10459;DHT22;5277;48.722;8.736;2023-06-04T03:01:25;11.60;99.90
10459;DHT22;5277;48.722;8.736;2023-06-04T03:03:53;11.60;99.90
10459;DHT22;5277;48.722;8.736;2023-06-04T03:06:19;11.70;99.90
10459;DHT22;5277;48.722;8.736;2023-06-04T03:08:47;11.50;99.90
10459;DHT22;5277;48.722;8.736;2023-06-04T03:11:13;11.50;99.90
10459;DHT22;5277;48.722;8.736;2023-06-04T03:13:39;11.50;99.90
10459;DHT22;5277;48.722;8.736;2023-06-04T03:16:05;11.50;99.90
10459;DHT22;5277;48.722;8.736;2023-06-04T03:18:35;11.50;99.90
10459;DHT22;5277;48.722;8.736;2023-06-04T03:21:02;11.40;99.90
10459;DHT22;5277;48.722;8.736;2023-06-04T03:23:28;11.50;99.90
10459;DHT22;5277;48.722;8.736;2023-06-04T03:25:53;11.50;99.90
10459;DHT22;5277;48.722;8.736;2023-06-04T03:28:19;11.50;99.90
10459;DHT22;5277;48.722;8.736;2023-06-04T03:30:45;11.50;99.90
10459;DHT22;5277;48.722;8.736;2023-06-04T03:33:11;11.50;99.90
10459;DHT22;5277;48.722;8.736;2023-06-04T03:35:36;11.40;99.90
10459;DHT22;5277;48.722;8.736;2023-06-04T03:38:02;11.40;99.90
10459;DHT22;5277;48.722;8.736;2023-06-04T03:40:27;11.40;99.90
10459;DHT22;5277;48.722;8.736;2023-06-04T03:42:53;11.40;99.90
10459;DHT22;5277;48.722;8.736;2023-06-04T03:45:19;11.30;99.90
10459;DHT22;5277;48.722;8.736;2023-06-04T03:47:45;11.30;99.90
10459;DHT22;5277;48.722;8.736;2023-06-04T03:50:11;11.30;99.90
10459;DHT22;5277;48.722;8.736;2023-06-04T03:52:37;11.20;99.90
10459;DHT22;5277;48.722;8.736;2023-06-04T03:55:03;11.30;99.90
10459;DHT22;5277;48.722;8.736;2023-06-04T03:57:29;11.20;99.90
10459;DHT22;5277;48.722;8.736;2023-06-04T03:59:54;11.20;99.90
10459;DHT22;5277;48.722;8.736;2023-06-04T04:02:20;11.30;99.90
10459;DHT22;5277;48.722;8.736;2023-06-04T04:04:46;11.30;99.90
10459;DHT22;5277;48.722;8.736;2023-06-04T04:07:12;11.40;99.90
10459;DHT22;5277;48.722;8.736;2023-06-04T04:09:37;11.40;99.90
10459;DHT22;5277;48.722;8.736;2023-06-04T04:12:04;11.40;99.90
10459;DHT22;5277;48.722;8.736;2023-06-04T04:14:30;11.30;99.90
10459;DHT22;5277;48.722;8.736;2023-06-04T04:16:55;11.30;99.90
10459;DHT22;5277;48.722;8.736;2023-06-04T04:19:21;11.30;99.90
10459;DHT22;5277;48.722;8.736;2023-06-04T04:21:47;11.40;99.90
10459;DHT22;5277;48.722;8.736;2023-06-04T04:24:25;11.50;99.90
10459;DHT22;5277;48.722;8.736;2023-06-04T04:26:52;11.30;99.90
10459;DHT22;5277;48.722;8.736;2023-06-04T04:29:22;11.40;99.90
10459;DHT22;5277;48.722;8.736;2023-06-04T04:31:53;11.50;99.90
10459;DHT22;5277;48.722;8.736;2023-06-04T04:34:22;11.50;99.90
10459;DHT22;5277;48.722;8.736;2023-06-04T04:36:49;11.50;99.90
10459;DHT22;5277;48.722;8.736;2023-06-04T04:39:24;11.50;99.90
10459;DHT22;5277;48.722;8.736;2023-06-04T04:41:51;11.50;99.90
10459;DHT22;5277;48.722;8.736;2023-06-04T04:44:16;11.60;99.90
10459;DHT22;5277;48.722;8.736;2023-06-04T04:46:42;11.60;99.90
10459;DHT22;5277;48.722;8.736;2023-06-04T04:49:08;11.70;99.90
10459;DHT22;5277;48.722;8.736;2023-06-04T04:51:34;11.70;99.90
10459;DHT22;5277;48.722;8.736;2023-06-04T04:54:00;11.70;99.90
10459;DHT22;5277;48.722;8.736;2023-06-04T04:56:26;11.70;99.90
10459;DHT22;5277;48.722;8.736;2023-06-04T04:58:52;11.70;99.90
10459;DHT22;5277;48.722;8.736;2023-06-04T05:01:18;11.70;99.90
10459;DHT22;5277;48.722;8.736;2023-06-04T05:03:44;11.70;99.90
10459;DHT22;5277;48.722;8.736;2023-06-04T05:06:10;11.80;99.90
10459;DHT22;5277;48.722;8.736;2023-06-04T05:08:35;11.90;99.90
10459;DHT22;5277;48.722;8.736;2023-06-04T05:11:01;12.00;99.90
10459;DHT22;5277;48.722;8.736;2023-06-04T05:13:27;12.10;99.90
10459;DHT22;5277;48.722;8.736;2023-06-04T05:15:53;12.10;99.90
10459;DHT22;5277;48.722;8.736;2023-06-04T05:18:19;12.10;99.90
10459;DHT22;5277;48.722;8.736;2023-06-04T05:20:55;12.10;99.90
10459;DHT22;5277;48.722;8.736;2023-06-04T05:23:20;12.20;99.90
10459;DHT22;5277;48.722;8.736;2023-06-04T05:25:46;12.20;99.90
10459;DHT22;5277;48.722;8.736;2023-06-04T05:28:14;12.30;99.90
10459;DHT22;5277;48.722;8.736;2023-06-04T05:30:40;12.50;99.90
10459;DHT22;5277;48.722;8.736;2023-06-04T05:33:07;12.60;99.90
10459;DHT22;5277;48.722;8.736;2023-06-04T05:35:34;12.80;99.90
10459;DHT22;5277;48.722;8.736;2023-06-04T05:38:00;13.00;99.90
10459;DHT22;5277;48.722;8.736;2023-06-04T05:40:26;13.20;99.90
10459;DHT22;5277;48.722;8.736;2023-06-04T05:42:51;13.40;99.90
10459;DHT22;5277;48.722;8.736;2023-06-04T05:45:17;13.60;99.90
10459;DHT22;5277;48.722;8.736;2023-06-04T05:47:42;13.80;99.90
10459;DHT22;5277;48.722;8.736;2023-06-04T05:50:09;14.00;99.90
10459;DHT22;5277;48.722;8.736;2023-06-04T05:52:35;14.20;99.90
10459;DHT22;5277;48.722;8.736;2023-06-04T05:55:02;14.50;99.90
10459;DHT22;5277;48.722;8.736;2023-06-04T05:57:28;14.70;99.90
10459;DHT22;5277;48.722;8.736;2023-06-04T05:59:53;15.00;99.90
10459;DHT22;5277;48.722;8.736;2023-06-04T06:02:19;15.10;99.20
10459;DHT22;5277;48.722;8.736;2023-06-04T06:04:45;15.20;98.60
10459;DHT22;5277;48.722;8.736;2023-06-04T06:07:10;15.30;97.00
10459;DHT22;5277;48.722;8.736;2023-06-04T06:09:36;15.30;97.60
10459;DHT22;5277;48.722;8.736;2023-06-04T06:12:02;15.60;97.80
10459;DHT22;5277;48.722;8.736;2023-06-04T06:14:27;15.90;98.00
10459;DHT22;5277;48.722;8.736;2023-06-04T06:16:53;16.30;97.20
10459;DHT22;5277;48.722;8.736;2023-06-04T06:19:19;16.50;97.20
10459;DHT22;5277;48.722;8.736;2023-06-04T06:21:45;16.70;96.90
10459;DHT22;5277;48.722;8.736;2023-06-04T06:24:10;17.10;95.80
10459;DHT22;5277;48.722;8.736;2023-06-04T06:26:36;17.30;95.60
10459;DHT22;5277;48.722;8.736;2023-06-04T06:29:02;17.50;94.70
10459;DHT22;5277;48.722;8.736;2023-06-04T06:31:28;17.80;94.20
10459;DHT22;5277;48.722;8.736;2023-06-04T06:33:54;17.80;92.90
10459;DHT22;5277;48.722;8.736;2023-06-04T06:36:19;17.70;90.80
10459;DHT22;5277;48.722;8.736;2023-06-04T06:38:46;17.90;91.40
10459;DHT22;5277;48.722;8.736;2023-06-04T06:41:12;18.00;90.80
10459;DHT22;5277;48.722;8.736;2023-06-04T06:43:38;18.30;91.60
10459;DHT22;5277;48.722;8.736;2023-06-04T06:46:03;18.40;91.60
10459;DHT22;5277;48.722;8.736;2023-06-04T06:48:29;18.40;91.40
10459;DHT22;5277;48.722;8.736;2023-06-04T06:50:55;18.60;90.90
10459;DHT22;5277;48.722;8.736;2023-06-04T06:53:21;18.70;90.00
10459;DHT22;5277;48.722;8.736;2023-06-04T06:55:46;18.90;88.80
10459;DHT22;5277;48.722;8.736;2023-06-04T06:58:12;19.10;87.00
10459;DHT22;5277;48.722;8.736;2023-06-04T07:00:37;19.30;85.70
10459;DHT22;5277;48.722;8.736;2023-06-04T07:03:03;19.40;82.70
10459;DHT22;5277;48.722;8.736;2023-06-04T07:05:29;19.60;83.10
10459;DHT22;5277;48.722;8.736;2023-06-04T07:07:55;19.70;81.70
10459;DHT22;5277;48.722;8.736;2023-06-04T07:10:22;19.90;82.20
10459;DHT22;5277;48.722;8.736;2023-06-04T07:12:48;20.10;80.70
10459;DHT22;5277;48.722;8.736;2023-06-04T07:15:14;20.30;79.30
10459;DHT22;5277;48.722;8.736;2023-06-04T07:17:39;20.50;79.60
10459;DHT22;5277;48.722;8.736;2023-06-04T07:20:06;20.70;78.40
10459;DHT22;5277;48.722;8.736;2023-06-04T07:22:33;20.90;78.40
10459;DHT22;5277;48.722;8.736;2023-06-04T07:24:59;21.10;77.90
10459;DHT22;5277;48.722;8.736;2023-06-04T07:27:24;21.10;75.00
10459;DHT22;5277;48.722;8.736;2023-06-04T07:29:51;21.30;75.30
10459;DHT22;5277;48.722;8.736;2023-06-04T07:32:17;21.50;74.90
10459;DHT22;5277;48.722;8.736;2023-06-04T07:34:43;21.70;73.90
10459;DHT22;5277;48.722;8.736;2023-06-04T07:37:08;21.90;72.40
10459;DHT22;5277;48.722;8.736;2023-06-04T07:39:35;22.10;71.30
10459;DHT22;5277;48.722;8.736;2023-06-04T07:42:01;22.20;69.50
10459;DHT22;5277;48.722;8.736;2023-06-04T07:44:26;22.40;70.20
10459;DHT22;5277;48.722;8.736;2023-06-04T07:46:52;22.50;68.20
10459;DHT22;5277;48.722;8.736;2023-06-04T07:49:17;22.30;67.40
10459;DHT22;5277;48.722;8.736;2023-06-04T07:51:43;22.60;66.40
10459;DHT22;5277;48.722;8.736;2023-06-04T07:54:09;22.80;66.20
10459;DHT22;5277;48.722;8.736;2023-06-04T07:56:35;22.90;66.30
10459;DHT22;5277;48.722;8.736;2023-06-04T07:59:01;23.10;66.00
10459;DHT22;5277;48.722;8.736;2023-06-04T08:01:27;23.30;66.50
10459;DHT22;5277;48.722;8.736;2023-06-04T08:03:52;23.50;66.90
10459;DHT22;5277;48.722;8.736;2023-06-04T08:06:18;23.60;65.70
10459;DHT22;5277;48.722;8.736;2023-06-04T08:08:44;23.70;67.60
10459;DHT22;5277;48.722;8.736;2023-06-04T08:11:11;23.80;66.30
10459;DHT22;5277;48.722;8.736;2023-06-04T08:13:37;23.80;64.00
10459;DHT22;5277;48.722;8.736;2023-06-04T08:16:02;24.10;64.70
10459;DHT22;5277;48.722;8.736;2023-06-04T08:18:28;24.10;63.30
10459;DHT22;5277;48.722;8.736;2023-06-04T08:20:54;24.10;64.50
10459;DHT22;5277;48.722;8.736;2023-06-04T08:23:20;23.70;63.00
10459;DHT22;5277;48.722;8.736;2023-06-04T08:25:45;23.90;62.90
10459;DHT22;5277;48.722;8.736;2023-06-04T08:28:13;23.80;63.40
10459;DHT22;5277;48.722;8.736;2023-06-04T08:30:39;23.90;64.00
10459;DHT22;5277;48.722;8.736;2023-06-04T08:33:05;23.80;60.40
10459;DHT22;5277;48.722;8.736;2023-06-04T08:35:30;24.10;61.20
10459;DHT22;5277;48.722;8.736;2023-06-04T08:37:56;24.20;60.10
10459;DHT22;5277;48.722;8.736;2023-06-04T08:40:22;24.30;59.50
10459;DHT22;5277;48.722;8.736;2023-06-04T08:42:48;24.40;59.10
10459;DHT22;5277;48.722;8.736;2023-06-04T08:45:14;24.60;58.00
10459;DHT22;5277;48.722;8.736;2023-06-04T08:47:53;24.70;57.40
10459;DHT22;5277;48.722;8.736;2023-06-04T08:50:24;24.70;58.00
10459;DHT22;5277;48.722;8.736;2023-06-04T08:52:55;24.80;56.90
10459;DHT22;5277;48.722;8.736;2023-06-04T08:55:21;24.70;57.50
10459;DHT22;5277;48.722;8.736;2023-06-04T08:57:49;24.60;56.90
10459;DHT22;5277;48.722;8.736;2023-06-04T09:00:17;24.50;55.90
10459;DHT22;5277;48.722;8.736;2023-06-04T09:02:44;24.40;57.20
10459;DHT22;5277;48.722;8.736;2023-06-04T09:05:10;24.80;55.60
10459;DHT22;5277;48.722;8.736;2023-06-04T09:07:45;24.90;54.90
10459;DHT22;5277;48.722;8.736;2023-06-04T09:10:13;25.20;53.90
10459;DHT22;5277;48.722;8.736;2023-06-04T09:12:43;25.20;53.80
10459;DHT22;5277;48.722;8.736;2023-06-04T09:15:12;25.00;54.20
10459;DHT22;5277;48.722;8.736;2023-06-04T09:17:37;24.90;54.00
10459;DHT22;5277;48.722;8.736;2023-06-04T09:20:03;25.00;54.80
10459;DHT22;5277;48.722;8.736;2023-06-04T09:22:34;25.10;55.00
10459;DHT22;5277;48.722;8.736;2023-06-04T09:25:02;25.50;54.80
10459;DHT22;5277;48.722;8.736;2023-06-04T09:27:37;25.70;54.30
10459;DHT22;5277;48.722;8.736;2023-06-04T09:30:04;26.00;53.70
10459;DHT22;5277;48.722;8.736;2023-06-04T09:32:31;25.90;53.10
10459;DHT22;5277;48.722;8.736;2023-06-04T09:37:37;26.00;51.60
10459;DHT22;5277;48.722;8.736;2023-06-04T09:40:03;26.30;51.90
10459;DHT22;5277;48.722;8.736;2023-06-04T09:42:30;26.50;52.40
10459;DHT22;5277;48.722;8.736;2023-06-04T09:44:56;26.80;50.20
10459;DHT22;5277;48.722;8.736;2023-06-04T09:47:23;26.80;49.30
10459;DHT22;5277;48.722;8.736;2023-06-04T09:49:49;26.70;50.50
10459;DHT22;5277;48.722;8.736;2023-06-04T09:52:16;26.40;50.80
10459;DHT22;5277;48.722;8.736;2023-06-04T09:54:42;26.50;50.60
10459;DHT22;5277;48.722;8.736;2023-06-04T09:57:16;26.90;50.90
10459;DHT22;5277;48.722;8.736;2023-06-04T09:59:47;27.30;49.90
10459;DHT22;5277;48.722;8.736;2023-06-04T10:02:18;27.50;50.10
10459;DHT22;5277;48.722;8.736;2023-06-04T10:04:49;27.60;48.80
10459;DHT22;5277;48.722;8.736;2023-06-04T10:07:17;27.80;49.20
10459;DHT22;5277;48.722;8.736;2023-06-04T10:09:43;27.80;48.00
10459;DHT22;5277;48.722;8.736;2023-06-04T10:12:16;27.90;47.80
10459;DHT22;5277;48.722;8.736;2023-06-04T10:14:51;27.70;47.90
10459;DHT22;5277;48.722;8.736;2023-06-04T10:17:18;27.90;46.90
10459;DHT22;5277;48.722;8.736;2023-06-04T10:19:47;28.10;47.70
10459;DHT22;5277;48.722;8.736;2023-06-04T10:22:14;28.20;47.60
10459;DHT22;5277;48.722;8.736;2023-06-04T10:24:40;28.50;48.20
10459;DHT22;5277;48.722;8.736;2023-06-04T10:27:06;28.10;47.50
10459;DHT22;5277;48.722;8.736;2023-06-04T10:29:36;28.50;47.20
10459;DHT22;5277;48.722;8.736;2023-06-04T10:32:02;28.90;47.30
10459;DHT22;5277;48.722;8.736;2023-06-04T10:34:28;28.80;46.90
10459;DHT22;5277;48.722;8.736;2023-06-04T10:36:55;28.80;46.20
10459;DHT22;5277;48.722;8.736;2023-06-04T10:39:31;29.20;47.00
10459;DHT22;5277;48.722;8.736;2023-06-04T10:42:01;29.10;46.60
10459;DHT22;5277;48.722;8.736;2023-06-04T10:44:29;29.70;44.90
10459;DHT22;5277;48.722;8.736;2023-06-04T10:46:54;30.00;44.60
10459;DHT22;5277;48.722;8.736;2023-06-04T10:49:28;29.70;43.90
10459;DHT22;5277;48.722;8.736;2023-06-04T10:51:54;29.70;43.90
10459;DHT22;5277;48.722;8.736;2023-06-04T10:54:28;29.90;44.70
10459;DHT22;5277;48.722;8.736;2023-06-04T10:56:54;29.80;44.30
10459;DHT22;5277;48.722;8.736;2023-06-04T10:59:20;29.90;43.20
10459;DHT22;5277;48.722;8.736;2023-06-04T11:01:46;29.80;41.90
10459;DHT22;5277;48.722;8.736;2023-06-04T11:04:25;30.10;43.80
10459;DHT22;5277;48.722;8.736;2023-06-04T11:07:04;30.50;44.50
10459;DHT22;5277;48.722;8.736;2023-06-04T11:09:37;30.90;42.70
10459;DHT22;5277;48.722;8.736;2023-06-04T11:12:06;31.00;43.10
10459;DHT22;5277;48.722;8.736;2023-06-04T11:14:32;31.10;43.20
10459;DHT22;5277;48.722;8.736;2023-06-04T11:17:11;31.60;40.40
10459;DHT22;5277;48.722;8.736;2023-06-04T11:19:38;31.60;40.60
10459;DHT22;5277;48.722;8.736;2023-06-04T11:22:11;31.70;40.00
10459;DHT22;5277;48.722;8.736;2023-06-04T11:24:37;31.90;39.50
10459;DHT22;5277;48.722;8.736;2023-06-04T11:27:03;31.90;40.80
10459;DHT22;5277;48.722;8.736;2023-06-04T11:29:29;32.00;39.80
10459;DHT22;5277;48.722;8.736;2023-06-04T11:31:55;32.40;39.80
10459;DHT22;5277;48.722;8.736;2023-06-04T11:34:27;32.80;38.30
10459;DHT22;5277;48.722;8.736;2023-06-04T11:36:54;33.00;38.10
10459;DHT22;5277;48.722;8.736;2023-06-04T11:39:23;33.00;40.90
10459;DHT22;5277;48.722;8.736;2023-06-04T11:41:50;33.10;37.50
10459;DHT22;5277;48.722;8.736;2023-06-04T11:44:19;32.80;38.90
10459;DHT22;5277;48.722;8.736;2023-06-04T11:46:51;31.70;37.90
10459;DHT22;5277;48.722;8.736;2023-06-04T11:49:19;32.10;38.40
10459;DHT22;5277;48.722;8.736;2023-06-04T11:51:50;32.80;37.60
10459;DHT22;5277;48.722;8.736;2023-06-04T11:54:16;32.90;38.80
10459;DHT22;5277;48.722;8.736;2023-06-04T11:56:43;32.80;39.00
10459;DHT22;5277;48.722;8.736;2023-06-04T11:59:13;32.50;38.90
10459;DHT22;5277;48.722;8.736;2023-06-04T12:01:43;32.70;36.90
10459;DHT22;5277;48.722;8.736;2023-06-04T12:04:16;32.30;37.60
10459;DHT22;5277;48.722;8.736;2023-06-04T12:06:52;32.40;39.80
10459;DHT22;5277;48.722;8.736;2023-06-04T12:09:23;32.70;37.10
10459;DHT22;5277;48.722;8.736;2023-06-04T12:11:49;33.70;37.50
10459;DHT22;5277;48.722;8.736;2023-06-04T12:14:17;33.80;37.00
10459;DHT22;5277;48.722;8.736;2023-06-04T12:16:54;33.40;36.00
10459;DHT22;5277;48.722;8.736;2023-06-04T12:19:19;32.80;37.80
10459;DHT22;5277;48.722;8.736;2023-06-04T12:21:45;33.40;38.10
10459;DHT22;5277;48.722;8.736;2023-06-04T12:24:14;33.70;37.90
10459;DHT22;5277;48.722;8.736;2023-06-04T12:26:41;33.30;36.70
10459;DHT22;5277;48.722;8.736;2023-06-04T12:29:10;32.90;36.40
10459;DHT22;5277;48.722;8.736;2023-06-04T12:31:37;32.70;36.90
10459;DHT22;5277;48.722;8.736;2023-06-04T12:34:02;33.10;37.80
10459;DHT22;5277;48.722;8.736;2023-06-04T12:36:28;32.80;35.80
10459;DHT22;5277;48.722;8.736;2023-06-04T12:38:58;32.00;34.90
10459;DHT22;5277;48.722;8.736;2023-06-04T12:41:24;32.50;39.50
10459;DHT22;5277;48.722;8.736;2023-06-04T12:43:50;32.10;36.90
10459;DHT22;5277;48.722;8.736;2023-06-04T12:46:16;32.20;36.90
10459;DHT22;5277;48.722;8.736;2023-06-04T12:48:42;32.50;38.30
10459;DHT22;5277;48.722;8.736;2023-06-04T12:51:09;31.80;37.90
10459;DHT22;5277;48.722;8.736;2023-06-04T12:53:41;32.50;38.40
10459;DHT22;5277;48.722;8.736;2023-06-04T12:56:07;32.80;35.90
10459;DHT22;5277;48.722;8.736;2023-06-04T12:58:33;32.50;35.80
10459;DHT22;5277;48.722;8.736;2023-06-04T13:00:59;32.20;39.00
10459;DHT22;5277;48.722;8.736;2023-06-04T13:03:25;31.30;38.50
10459;DHT22;5277;48.722;8.736;2023-06-04T13:05:51;30.90;38.10
10459;DHT22;5277;48.722;8.736;2023-06-04T13:08:19;29.70;39.60
10459;DHT22;5277;48.722;8.736;2023-06-04T13:10:46;29.10;40.50
10459;DHT22;5277;48.722;8.736;2023-06-04T13:13:11;28.60;42.10
10459;DHT22;5277;48.722;8.736;2023-06-04T13:15:37;28.50;41.90
10459;DHT22;5277;48.722;8.736;2023-06-04T13:18:02;28.00;43.20
10459;DHT22;5277;48.722;8.736;2023-06-04T13:20:28;27.60;42.70
10459;DHT22;5277;48.722;8.736;2023-06-04T13:22:54;27.30;44.50
10459;DHT22;5277;48.722;8.736;2023-06-04T13:25:19;27.10;44.30
10459;DHT22;5277;48.722;8.736;2023-06-04T13:27:45;26.50;44.20
10459;DHT22;5277;48.722;8.736;2023-06-04T13:30:11;26.50;47.00
10459;DHT22;5277;48.722;8.736;2023-06-04T13:32:37;26.20;45.30
10459;DHT22;5277;48.722;8.736;2023-06-04T13:35:03;25.90;44.40
10459;DHT22;5277;48.722;8.736;2023-06-04T13:37:28;25.70;46.80
10459;DHT22;5277;48.722;8.736;2023-06-04T13:39:54;25.50;44.50
10459;DHT22;5277;48.722;8.736;2023-06-04T13:42:20;25.60;46.70
10459;DHT22;5277;48.722;8.736;2023-06-04T13:44:46;25.50;48.20
10459;DHT22;5277;48.722;8.736;2023-06-04T13:47:12;25.40;47.70
10459;DHT22;5277;48.722;8.736;2023-06-04T13:49:37;25.30;46.80
10459;DHT22;5277;48.722;8.736;2023-06-04T13:52:03;25.30;48.10
10459;DHT22;5277;48.722;8.736;2023-06-04T13:54:28;25.20;46.80
10459;DHT22;5277;48.722;8.736;2023-06-04T13:56:54;25.20;50.50
10459;DHT22;5277;48.722;8.736;2023-06-04T13:59:20;25.10;46.90
10459;DHT22;5277;48.722;8.736;2023-06-04T14:01:46;25.10;47.30
10459;DHT22;5277;48.722;8.736;2023-06-04T14:04:11;25.10;47.40
10459;DHT22;5277;48.722;8.736;2023-06-04T14:06:37;25.00;50.30
10459;DHT22;5277;48.722;8.736;2023-06-04T14:09:03;24.90;49.10
10459;DHT22;5277;48.722;8.736;2023-06-04T14:11:29;24.80;47.00
10459;DHT22;5277;48.722;8.736;2023-06-04T14:13:55;24.70;49.40
10459;DHT22;5277;48.722;8.736;2023-06-04T14:16:21;24.70;50.20
10459;DHT22;5277;48.722;8.736;2023-06-04T14:18:47;24.60;52.30
10459;DHT22;5277;48.722;8.736;2023-06-04T14:21:12;24.50;51.80
10459;DHT22;5277;48.722;8.736;2023-06-04T14:23:38;24.40;48.10
10459;DHT22;5277;48.722;8.736;2023-06-04T14:26:03;24.30;50.10
10459;DHT22;5277;48.722;8.736;2023-06-04T14:28:29;24.20;49.40
10459;DHT22;5277;48.722;8.736;2023-06-04T14:30:55;24.20;47.00
10459;DHT22;5277;48.722;8.736;2023-06-04T14:33:21;24.20;49.60
10459;DHT22;5277;48.722;8.736;2023-06-04T14:35:47;24.10;48.80
10459;DHT22;5277;48.722;8.736;2023-06-04T14:38:13;24.10;52.00
10459;DHT22;5277;48.722;8.736;2023-06-04T14:40:42;23.80;50.10
10459;DHT22;5277;48.722;8.736;2023-06-04T14:43:12;23.80;50.70
10459;DHT22;5277;48.722;8.736;2023-06-04T14:45:38;23.80;49.60
10459;DHT22;5277;48.722;8.736;2023-06-04T14:48:05;23.80;51.60
10459;DHT22;5277;48.722;8.736;2023-06-04T14:50:31;23.70;49.10
10459;DHT22;5277;48.722;8.736;2023-06-04T14:52:56;23.70;51.50
10459;DHT22;5277;48.722;8.736;2023-06-04T14:55:23;23.60;49.40
10459;DHT22;5277;48.722;8.736;2023-06-04T14:57:50;23.60;49.60
10459;DHT22;5277;48.722;8.736;2023-06-04T15:00:16;23.50;48.70
10459;DHT22;5277;48.722;8.736;2023-06-04T15:02:42;23.40;51.50
10459;DHT22;5277;48.722;8.736;2023-06-04T15:05:07;23.30;52.00
10459;DHT22;5277;48.722;8.736;2023-06-04T15:07:33;23.20;49.60
10459;DHT22;5277;48.722;8.736;2023-06-04T15:09:59;23.20;49.20
10459;DHT22;5277;48.722;8.736;2023-06-04T15:12:27;23.20;52.40
10459;DHT22;5277;48.722;8.736;2023-06-04T15:14:53;23.10;52.80
10459;DHT22;5277;48.722;8.736;2023-06-04T15:17:18;23.20;50.80
10459;DHT22;5277;48.722;8.736;2023-06-04T15:19:44;23.10;52.90
10459;DHT22;5277;48.722;8.736;2023-06-04T15:22:09;23.00;48.10
10459;DHT22;5277;48.722;8.736;2023-06-04T15:24:35;23.00;49.90
10459;DHT22;5277;48.722;8.736;2023-06-04T15:27:04;22.90;49.60
10459;DHT22;5277;48.722;8.736;2023-06-04T15:29:30;22.90;48.70
10459;DHT22;5277;48.722;8.736;2023-06-04T15:31:56;22.90;51.80
10459;DHT22;5277;48.722;8.736;2023-06-04T15:34:21;22.80;49.20
10459;DHT22;5277;48.722;8.736;2023-06-04T15:36:47;22.80;51.50
10459;DHT22;5277;48.722;8.736;2023-06-04T15:39:13;22.80;53.20
10459;DHT22;5277;48.722;8.736;2023-06-04T15:41:38;22.80;48.80
10459;DHT22;5277;48.722;8.736;2023-06-04T15:44:04;22.70;52.30
10459;DHT22;5277;48.722;8.736;2023-06-04T15:46:29;22.70;52.10
10459;DHT22;5277;48.722;8.736;2023-06-04T15:48:55;22.80;51.40
10459;DHT22;5277;48.722;8.736;2023-06-04T15:51:21;22.70;54.00
10459;DHT22;5277;48.722;8.736;2023-06-04T15:53:47;22.60;51.20
10459;DHT22;5277;48.722;8.736;2023-06-04T15:56:12;22.50;53.30
10459;DHT22;5277;48.722;8.736;2023-06-04T15:58:41;22.50;51.40